Time;durP1;ratioP1;P1;durP2;ratioP2;P2;SDS_P1;SDS_P2;PMS_P1;PMS_P2;Temp;Humidity;BMP_temperature;BMP_pressure;BME280_temperature;BME280_humidity;BME280_pressure;Samples;Min_cycle;Max_cycle;Signal;HPM_P1;HPM_P2
2020/12/04 00:00:58;;;;;;;13.73;6.90;;;;;;;4.58;64.91;97921.03;8869444;32;20189;-75
2020/12/04 00:06:01;;;;;;;16.03;7.40;;;;;;;4.59;65.37;97915.63;8896201;32;20240;-74
2020/12/04 00:11:04;;;;;;;13.13;7.40;;;;;;;4.58;64.90;97911.31;8895579;32;20664;-75
2020/12/04 00:16:06;;;;;;;18.07;6.97;;;;;;;4.67;65.14;97899.97;8895668;32;20189;-74
2020/12/04 00:21:09;;;;;;;14.13;7.10;;;;;;;4.73;64.67;97889.84;8895194;32;20628;-75
2020/12/04 00:26:12;;;;;;;14.07;6.37;;;;;;;4.67;64.43;97875.34;8895397;32;20693;-74
2020/12/04 00:31:15;;;;;;;13.33;6.23;;;;;;;4.62;64.38;97854.56;8882529;32;20189;-75
2020/12/04 00:36:18;;;;;;;14.43;7.03;;;;;;;4.73;63.91;97866.06;8895176;32;20230;-74
2020/12/04 00:41:21;;;;;;;14.90;7.10;;;;;;;4.92;63.79;97860.91;8894826;32;20550;-75
2020/12/04 00:46:23;;;;;;;12.67;6.70;;;;;;;4.83;63.76;97862.53;8895325;32;20183;-74
2020/12/04 00:51:27;;;;;;;14.97;8.53;;;;;;;4.74;63.97;97846.56;8869052;32;20587;-74
2020/12/04 00:56:32;;;;;;;14.77;7.20;;;;;;;4.64;64.26;97842.03;8844364;32;20189;-74
2020/12/04 01:01:37;;;;;;;14.57;7.97;;;;;;;4.59;64.43;97824.88;8868648;32;20311;-74
2020/12/04 01:06:40;;;;;;;18.17;7.83;;;;;;;4.53;64.72;97814.81;8869319;32;20371;-74
2020/12/04 01:11:42;;;;;;;14.87;7.03;;;;;;;4.59;64.60;97799.28;8894237;32;20185;-74
2020/12/04 01:16:46;;;;;;;16.47;8.87;;;;;;;4.52;64.90;97789.34;8893906;32;20189;-74
2020/12/04 01:21:50;;;;;;;18.63;8.40;;;;;;;4.51;65.11;97764.72;8867189;32;20520;-74
2020/12/04 01:26:53;;;;;;;18.10;8.73;;;;;;;4.46;65.49;97753.69;8867975;32;20411;-75
2020/12/04 01:31:55;;;;;;;20.33;9.63;;;;;;;4.54;65.80;97747.75;8893242;32;20150;-74
2020/12/04 01:36:58;;;;;;;17.50;9.80;;;;;;;4.52;66.10;97747.88;8893327;32;20575;-75
2020/12/04 01:42:00;;;;;;;24.57;10.50;;;;;;;4.42;66.45;97737.25;8893069;32;20223;-74
2020/12/04 01:47:02;;;;;;;21.17;10.03;;;;;;;4.43;67.25;97744.19;8893872;32;21133;-75
2020/12/04 01:52:05;;;;;;;19.97;9.10;;;;;;;4.41;67.68;97745.28;8892688;32;20570;-74
2020/12/04 01:57:08;;;;;;;19.40;8.87;;;;;;;4.31;67.66;97739.94;8893008;32;20480;-74
2020/12/04 02:02:19;;;;;;;16.00;8.20;;;;;;;4.37;67.84;97728.03;8892548;32;20149;-74
2020/12/04 02:07:33;;;;;;;19.90;9.50;;;;;;;4.36;67.36;97715.75;8893098;32;21082;-74
2020/12/04 02:12:36;;;;;;;20.30;11.00;;;;;;;4.31;67.52;97688.91;8892910;32;20185;-74
2020/12/04 02:17:41;;;;;;;19.97;9.80;;;;;;;4.37;67.02;97698.94;8867307;32;20490;-74
2020/12/04 02:22:44;;;;;;;13.23;6.33;;;;;;;4.31;66.88;97697.66;8892289;32;20933;-74
2020/12/04 02:27:47;;;;;;;22.60;10.40;;;;;;;4.34;67.16;97673.59;8892822;32;20435;-73
2020/12/04 02:32:49;;;;;;;19.50;9.90;;;;;;;4.26;67.32;97678.72;8894937;32;20689;-74
2020/12/04 02:37:53;;;;;;;22.50;10.93;;;;;;;4.34;66.74;97670.97;8898226;32;20171;-74
2020/12/04 02:42:55;;;;;;;22.27;10.87;;;;;;;4.27;67.31;97656.59;8897681;32;20881;-74
2020/12/04 02:47:57;;;;;;;22.07;10.47;;;;;;;4.52;66.43;97649.22;8897917;32;20207;-74
2020/12/04 02:53:00;;;;;;;22.70;12.37;;;;;;;4.38;67.10;97653.88;8896875;32;20181;-74
2020/12/04 02:58:03;;;;;;;20.17;8.97;;;;;;;4.42;67.92;97642.09;8897443;32;20203;-74
2020/12/04 03:03:05;;;;;;;17.73;8.30;;;;;;;4.43;67.70;97630.53;8897279;32;20154;-73
2020/12/04 03:08:08;;;;;;;20.30;9.47;;;;;;;4.53;67.59;97651.75;8872321;32;20165;-74
2020/12/04 03:13:10;;;;;;;21.17;9.77;;;;;;;4.61;67.29;97643.16;8896923;32;21493;-74
2020/12/04 03:18:13;;;;;;;23.27;8.53;;;;;;;4.57;66.78;97626.69;8897454;32;20150;-73
2020/12/04 03:23:16;;;;;;;14.93;7.60;;;;;;;4.57;66.58;97623.22;8871133;32;20189;-74
2020/12/04 03:28:18;;;;;;;21.43;10.93;;;;;;;4.62;66.49;97626.31;8897022;32;20754;-74
2020/12/04 03:33:20;;;;;;;25.60;9.60;;;;;;;4.52;66.91;97626.25;8896299;32;20234;-74
2020/12/04 03:38:24;;;;;;;18.00;8.97;;;;;;;4.62;66.47;97616.56;8896852;32;21032;-74
2020/12/04 03:43:26;;;;;;;21.43;10.00;;;;;;;4.62;66.77;97608.63;8896271;32;20223;-74
2020/12/04 03:48:28;;;;;;;19.80;9.50;;;;;;;4.64;66.93;97612.00;8896319;32;20250;-73
2020/12/04 03:53:31;;;;;;;15.50;6.93;;;;;;;4.66;66.83;97603.91;8895688;32;20810;-74
2020/12/04 03:58:34;;;;;;;16.33;8.63;;;;;;;4.70;67.04;97588.63;8895805;32;20522;-73
2020/12/04 04:03:36;;;;;;;23.10;10.37;;;;;;;4.85;67.29;97572.25;8896057;32;20194;-74
2020/12/04 04:08:39;;;;;;;18.33;8.23;;;;;;;4.78;67.28;97579.06;8871131;32;20142;-74
2020/12/04 04:13:41;;;;;;;24.30;9.33;;;;;;;4.73;68.42;97581.25;8895950;32;20253;-74
2020/12/04 04:18:43;;;;;;;19.27;9.30;;;;;;;4.80;69.11;97563.88;8896023;32;20185;-74
2020/12/04 04:23:46;;;;;;;12.00;6.70;;;;;;;4.56;69.24;97548.38;8869197;32;21813;-74
2020/12/04 04:28:48;;;;;;;19.33;9.63;;;;;;;4.61;69.51;97540.88;8895413;32;20212;-73
2020/12/04 04:33:51;;;;;;;16.13;7.87;;;;;;;4.73;69.06;97541.59;8895020;32;20246;-73
2020/12/04 04:38:54;;;;;;;17.00;8.40;;;;;;;4.75;68.83;97534.38;8895565;32;20150;-73
2020/12/04 04:43:56;;;;;;;15.60;8.33;;;;;;;4.64;69.05;97550.34;8869370;32;20181;-73
2020/12/04 04:49:09;;;;;;;22.27;8.77;;;;;;;4.92;68.82;97522.28;8869264;32;20204;-73
2020/12/04 04:54:13;;;;;;;15.90;8.10;;;;;;;4.97;68.95;97525.34;8895653;32;20411;-74
2020/12/04 04:59:17;;;;;;;16.23;8.02;;;;;;;4.98;68.79;97523.53;8895173;32;20185;-74
2020/12/04 05:04:20;;;;;;;18.90;8.93;;;;;;;5.06;68.92;97524.53;8896117;32;20555;-74
2020/12/04 05:09:25;;;;;;;22.88;10.10;;;;;;;4.98;69.16;97524.38;8895357;32;20249;-74
2020/12/04 05:14:28;;;;;;;18.75;8.35;;;;;;;5.00;69.29;97529.53;8894249;32;20318;-73
2020/12/04 05:19:33;;;;;;;21.37;9.70;;;;;;;5.14;68.89;97521.19;8893828;32;20189;-74
2020/12/04 05:24:36;;;;;;;17.50;6.93;;;;;;;5.10;68.86;97520.63;8868134;32;20184;-74
2020/12/04 05:29:39;;;;;;;18.83;8.17;;;;;;;5.19;69.34;97534.84;8868322;32;20257;-73
2020/12/04 05:34:41;;;;;;;10.90;5.53;;;;;;;5.31;70.39;97520.50;8894300;32;20153;-72
2020/12/04 05:39:48;;;;;;;14.70;6.32;;;;;;;5.71;69.85;97527.44;8893111;32;20154;-75
2020/12/04 05:44:54;;;;;;;9.38;5.60;;;;;;;5.69;69.44;97523.25;8893674;32;20186;-74
2020/12/04 05:49:57;;;;;;;8.88;5.43;;;;;;;5.74;69.34;97547.50;8893035;32;20189;-74
2020/12/04 05:55:01;;;;;;;14.10;6.22;;;;;;;5.85;68.92;97526.16;8892686;32;20152;-74
2020/12/04 06:00:04;;;;;;;8.35;4.93;;;;;;;5.79;69.20;97550.59;8892825;32;20205;-74
2020/12/04 06:05:14;;;;;;;7.85;4.60;;;;;;;5.97;68.92;97548.06;8893470;32;20188;-75
2020/12/04 06:10:17;;;;;;;9.45;5.53;;;;;;;5.82;69.27;97537.03;8892910;32;20178;-75
2020/12/04 06:15:24;;;;;;;11.02;6.93;;;;;;;5.84;69.59;97566.88;8893390;32;20471;-75
2020/12/04 06:20:27;;;;;;;7.55;4.90;;;;;;;5.80;69.80;97570.78;8892428;32;20164;-76
2020/12/04 06:25:58;;;;;;;7.85;5.72;;;;;;;5.67;70.84;97573.72;8866984;32;20157;-74
2020/12/04 06:31:07;;;;;;;11.45;5.85;;;;;;;5.53;71.92;97577.63;8866549;32;20157;-74
2020/12/04 06:36:11;;;;;;;12.45;6.53;;;;;;;5.47;73.01;97578.19;8892529;32;20542;-74
2020/12/04 06:41:27;;;;;;;12.10;5.95;;;;;;;5.38;73.73;97576.38;8866721;32;21441;-74
2020/12/04 06:46:41;;;;;;;14.93;6.85;;;;;;;5.39;74.73;97593.91;8891376;32;20142;-74
2020/12/04 06:51:59;;;;;;;11.38;6.38;;;;;;;5.29;75.01;97612.47;8855799;32;20147;-74
2020/12/04 06:57:03;;;;;;;11.90;6.40;;;;;;;5.19;75.82;97603.66;8831324;33;20435;-75
2020/12/04 07:02:09;;;;;;;7.82;5.35;;;;;;;5.23;76.72;97601.56;8830265;33;20147;-74
2020/12/04 07:07:14;;;;;;;11.75;6.38;;;;;;;5.22;77.70;97605.19;8818384;33;20521;-73
2020/12/04 07:12:20;;;;;;;15.65;6.63;;;;;;;5.12;78.36;97621.03;8830758;32;20537;-73
2020/12/04 07:17:26;;;;;;;11.35;5.25;;;;;;;5.12;78.91;97615.75;8804474;32;20306;-73
2020/12/04 07:22:28;;;;;;;12.48;6.75;;;;;;;5.20;79.16;97617.72;8835289;32;20197;-74
2020/12/04 07:27:31;;;;;;;6.70;3.75;;;;;;;5.15;79.20;97631.34;8835719;32;20313;-73
2020/12/04 07:32:34;;;;;;;14.65;7.30;;;;;;;5.19;79.58;97624.00;8836831;32;20957;-74
2020/12/04 07:37:36;;;;;;;8.30;4.40;;;;;;;5.06;79.83;97640.13;8837066;32;20189;-74
2020/12/04 07:42:39;;;;;;;10.65;5.82;;;;;;;5.15;80.02;97638.47;8836543;32;20643;-74
2020/12/04 07:47:42;;;;;;;8.50;4.47;;;;;;;5.28;80.04;97636.41;8836436;32;20425;-76
2020/12/04 07:52:51;;;;;;;11.18;5.53;;;;;;;5.32;80.00;97632.50;8835941;32;20193;-74
2020/12/04 07:58:03;;;;;;;10.00;5.18;;;;;;;5.25;80.09;97640.16;8836268;32;21425;-74
2020/12/04 08:03:11;;;;;;;11.13;4.90;;;;;;;5.36;79.50;97628.63;8828771;32;20186;-75
2020/12/04 08:08:19;;;;;;;6.35;3.35;;;;;;;5.46;79.21;97644.53;8835282;32;20415;-75
2020/12/04 08:13:25;;;;;;;8.27;4.30;;;;;;;5.49;78.63;97663.63;8836239;32;20198;-75
2020/12/04 08:18:28;;;;;;;6.63;4.03;;;;;;;5.73;78.35;97634.09;8793742;32;21115;-75
2020/12/04 08:23:30;;;;;;;9.45;4.70;;;;;;;5.73;78.39;97651.78;8666804;32;21795;-74
2020/12/04 08:28:34;;;;;;;5.13;3.03;;;;;;;5.74;78.26;97664.06;8680072;32;20459;-73
2020/12/04 08:33:40;;;;;;;5.47;4.00;;;;;;;5.91;78.41;97651.94;8666210;32;20486;-75
2020/12/04 08:38:53;;;;;;;7.22;3.95;;;;;;;5.92;78.25;97643.00;8638939;32;20435;-75
2020/12/04 08:43:56;;;;;;;5.35;3.47;;;;;;;5.91;77.78;97658.06;8663577;32;20131;-74
2020/12/04 08:49:04;;;;;;;8.18;3.83;;;;;;;6.06;77.81;97671.78;8660926;32;20628;-74
2020/12/04 08:54:07;;;;;;;4.10;2.88;;;;;;;6.09;77.01;97665.34;8662429;32;20428;-74
2020/12/04 08:59:10;;;;;;;7.30;3.30;;;;;;;6.28;77.03;97665.34;8663468;32;20945;-75
2020/12/04 09:04:13;;;;;;;5.75;3.45;;;;;;;6.29;76.11;97674.94;8663900;32;20442;-74
2020/12/04 09:09:15;;;;;;;5.68;3.55;;;;;;;6.51;76.18;97675.63;8674934;32;20381;-74
2020/12/04 09:14:18;;;;;;;5.57;3.53;;;;;;;6.52;75.44;97696.69;8673478;32;22125;-74
2020/12/04 09:19:21;;;;;;;4.65;3.00;;;;;;;6.60;75.16;97670.28;8662914;32;20572;-75
2020/12/04 09:24:24;;;;;;;7.13;4.32;;;;;;;6.72;75.49;97672.75;8668383;32;20606;-74
2020/12/04 09:29:27;;;;;;;6.95;3.92;;;;;;;6.72;75.16;97670.09;8677419;32;21125;-74
2020/12/04 09:34:30;;;;;;;6.07;3.95;;;;;;;6.67;74.93;97678.50;8666351;32;20215;-74
2020/12/04 09:39:32;;;;;;;7.00;4.13;;;;;;;6.85;74.55;97678.56;8669489;32;22298;-72
2020/12/04 09:44:36;;;;;;;7.22;4.20;;;;;;;6.84;74.41;97669.78;8664022;32;20235;-73
2020/12/04 09:49:38;;;;;;;8.38;4.15;;;;;;;6.92;74.07;97665.59;8657198;32;20429;-75
2020/12/04 09:54:43;;;;;;;5.45;2.78;;;;;;;6.94;73.83;97668.91;8634001;32;20412;-73
2020/12/04 09:59:46;;;;;;;6.05;3.63;;;;;;;7.23;73.24;97687.38;8663482;32;20183;-74
2020/12/04 10:04:49;;;;;;;5.07;3.42;;;;;;;7.25;72.77;97670.31;8671860;32;20514;-73
2020/12/04 10:09:51;;;;;;;6.93;4.00;;;;;;;7.45;72.55;97696.75;8676250;32;21834;-74
2020/12/04 10:14:54;;;;;;;4.85;3.15;;;;;;;7.56;72.31;97686.75;8674015;32;21475;-74
2020/12/04 10:19:56;;;;;;;6.05;3.58;;;;;;;7.58;72.17;97711.34;8674014;32;20227;-74
2020/12/04 10:24:59;;;;;;;5.07;3.53;;;;;;;7.78;71.54;97708.56;8674843;32;20399;-75
2020/12/04 10:30:02;;;;;;;6.10;4.10;;;;;;;7.71;71.58;97723.47;8673573;32;20417;-74
2020/12/04 10:35:05;;;;;;;4.75;3.53;;;;;;;7.61;72.03;97720.03;8674725;32;21348;-74
2020/12/04 10:40:07;;;;;;;4.15;3.40;;;;;;;7.70;71.67;97719.13;8675022;32;20430;-74
2020/12/04 10:45:10;;;;;;;5.53;2.92;;;;;;;7.74;71.63;97716.03;8675129;32;20203;-74
2020/12/04 10:50:12;;;;;;;6.22;3.88;;;;;;;7.74;71.72;97731.13;8677703;32;20589;-74
2020/12/04 10:55:14;;;;;;;3.83;3.22;;;;;;;7.64;71.60;97699.28;8681323;32;20174;-74
2020/12/04 11:00:18;;;;;;;3.25;2.60;;;;;;;8.00;70.85;97715.28;8682633;32;20508;-74
2020/12/04 11:05:40;;;;;;;5.32;3.08;;;;;;;7.93;71.06;97711.56;8679495;32;20400;-74
2020/12/04 11:10:43;;;;;;;3.92;3.15;;;;;;;8.16;70.52;97719.91;8678304;32;20425;-74
2020/12/04 11:15:46;;;;;;;5.93;4.03;;;;;;;8.22;70.25;97713.97;8678234;32;20182;-74
2020/12/04 11:20:48;;;;;;;5.72;3.83;;;;;;;8.30;69.81;97718.53;8683238;32;20525;-74
2020/12/04 11:25:51;;;;;;;4.90;3.10;;;;;;;8.31;70.30;97723.72;8684822;32;20424;-73
2020/12/04 11:30:54;;;;;;;5.93;3.35;;;;;;;8.37;69.96;97724.94;8686527;32;20795;-74
2020/12/04 11:35:57;;;;;;;8.45;4.13;;;;;;;8.61;69.27;97711.00;8686896;32;20259;-73
2020/12/04 11:40:59;;;;;;;4.25;3.55;;;;;;;8.98;68.05;97694.78;8681421;32;20141;-72
2020/12/04 11:46:03;;;;;;;7.35;4.65;;;;;;;9.46;66.61;97703.13;8679668;32;20190;-75
2020/12/04 11:51:05;;;;;;;4.17;3.23;;;;;;;9.69;65.63;97701.56;8683348;32;20438;-73
2020/12/04 11:56:07;;;;;;;5.93;3.38;;;;;;;10.10;64.35;97712.31;8676313;32;20218;-74
2020/12/04 12:01:11;;;;;;;5.38;3.58;;;;;;;10.45;63.42;97700.53;8684603;32;20934;-73
2020/12/04 12:06:14;;;;;;;5.90;3.92;;;;;;;10.54;62.47;97708.53;8672014;32;20232;-73
2020/12/04 12:11:16;;;;;;;4.65;3.42;;;;;;;9.99;63.81;97700.13;8672155;32;20682;-74
2020/12/04 12:16:21;;;;;;;5.28;3.47;;;;;;;9.47;65.71;97713.66;8682204;32;20519;-71
2020/12/04 12:21:24;;;;;;;5.93;3.08;;;;;;;9.76;65.24;97726.59;8657885;32;20212;-74
2020/12/04 12:26:27;;;;;;;5.22;3.33;;;;;;;10.23;63.46;97711.84;8679512;32;20472;-74
2020/12/04 12:31:30;;;;;;;4.07;3.15;;;;;;;10.16;63.39;97718.81;8665772;32;20440;-75
2020/12/04 12:36:32;;;;;;;6.95;2.67;;;;;;;10.93;60.93;97711.31;8663011;32;20208;-73
2020/12/04 12:41:35;;;;;;;3.85;2.60;;;;;;;10.77;61.49;97736.19;8661293;32;20229;-72
2020/12/04 12:46:40;;;;;;;3.97;2.92;;;;;;;10.84;60.64;97734.53;8663386;32;20444;-74
2020/12/04 12:51:42;;;;;;;4.53;2.78;;;;;;;10.86;60.39;97737.03;8660862;32;20403;-74
2020/12/04 12:56:47;;;;;;;5.80;2.97;;;;;;;10.34;61.85;97732.03;8660835;32;20264;-74
2020/12/04 13:01:51;;;;;;;4.03;3.00;;;;;;;10.68;60.95;97738.06;8661253;32;20147;-74
2020/12/04 13:06:54;;;;;;;3.40;2.30;;;;;;;11.70;57.54;97749.00;8663630;32;20131;-73
2020/12/04 13:11:56;;;;;;;5.43;3.15;;;;;;;11.22;59.07;97729.47;8678483;32;20130;-74
2020/12/04 13:16:59;;;;;;;4.32;2.65;;;;;;;10.51;60.84;97728.38;8680054;32;20795;-74
2020/12/04 13:22:03;;;;;;;3.22;1.88;;;;;;;10.06;62.04;97726.97;8680182;32;20182;-74
2020/12/04 13:27:06;;;;;;;5.45;2.50;;;;;;;9.56;63.45;97735.81;8676238;32;20595;-75
2020/12/04 13:32:10;;;;;;;5.28;2.95;;;;;;;9.44;64.01;97734.47;8675831;32;20501;-73
2020/12/04 13:37:13;;;;;;;7.30;2.83;;;;;;;9.26;64.35;97726.53;8679511;32;20444;-75
2020/12/04 13:42:15;;;;;;;3.83;3.05;;;;;;;9.31;64.56;97717.06;8672922;32;20419;-73
2020/12/04 13:47:18;;;;;;;2.92;2.58;;;;;;;9.29;64.23;97745.69;8669110;32;20197;-75
2020/12/04 13:52:20;;;;;;;3.70;2.42;;;;;;;9.18;64.93;97734.50;8658105;32;21717;-74
2020/12/04 13:57:23;;;;;;;4.00;2.53;;;;;;;9.20;65.11;97730.66;8657363;32;20506;-73
2020/12/04 14:02:30;;;;;;;5.47;2.65;;;;;;;9.32;64.43;97740.06;8656206;32;20413;-72
2020/12/04 14:07:35;;;;;;;3.78;2.40;;;;;;;9.18;65.21;97756.63;8655349;32;20409;-73
2020/12/04 14:12:37;;;;;;;2.78;1.90;;;;;;;9.11;65.36;97763.59;8655650;32;20420;-75
2020/12/04 14:17:40;;;;;;;3.45;2.80;;;;;;;8.98;66.22;97763.16;8659746;32;20177;-73
2020/12/04 14:22:42;;;;;;;6.22;3.20;;;;;;;8.90;66.31;97778.09;8659109;32;20582;-74
2020/12/04 14:27:45;;;;;;;4.20;2.73;;;;;;;8.93;66.30;97770.78;8655594;32;20417;-74
2020/12/04 14:32:49;;;;;;;5.35;3.25;;;;;;;8.77;66.55;97780.31;8658323;32;20486;-74
2020/12/04 14:37:52;;;;;;;6.22;4.40;;;;;;;8.72;66.63;97777.31;8659733;32;20527;-73
2020/12/04 14:42:54;;;;;;;6.72;3.65;;;;;;;8.75;66.43;97786.78;8657678;32;20516;-74
2020/12/04 14:47:57;;;;;;;5.40;3.08;;;;;;;8.56;67.03;97793.97;8655463;32;20595;-73
2020/12/04 14:53:00;;;;;;;3.95;3.40;;;;;;;8.55;67.05;97808.25;8651421;32;20420;-75
2020/12/04 14:58:02;;;;;;;4.72;3.47;;;;;;;8.53;67.69;97814.72;8653655;32;20469;-74
2020/12/04 15:03:05;;;;;;;4.15;3.30;;;;;;;8.54;67.64;97824.38;8653516;32;20235;-74
2020/12/04 15:08:10;;;;;;;5.22;3.60;;;;;;;8.48;67.40;97835.63;8655102;32;22067;-74
2020/12/04 15:13:13;;;;;;;4.93;3.00;;;;;;;8.49;67.53;97840.78;8655681;32;20683;-74
2020/12/04 15:18:16;;;;;;;8.02;3.58;;;;;;;8.48;66.88;97836.47;8656810;32;20420;-74
2020/12/04 15:23:19;;;;;;;8.48;3.50;;;;;;;8.55;67.31;97856.16;8657251;32;20402;-74
2020/12/04 15:28:21;;;;;;;6.35;3.42;;;;;;;8.56;67.18;97862.31;8650908;32;20303;-74
2020/12/04 15:33:25;;;;;;;6.47;3.53;;;;;;;8.46;67.32;97868.53;8650470;32;20548;-73
2020/12/04 15:38:27;;;;;;;7.60;3.40;;;;;;;8.50;67.67;97878.88;8650893;32;20986;-74
2020/12/04 15:43:29;;;;;;;4.30;3.42;;;;;;;8.41;67.65;97886.75;8653399;32;20417;-75
2020/12/04 15:48:32;;;;;;;4.47;3.15;;;;;;;8.31;67.83;97901.06;8654572;32;20700;-74
2020/12/04 15:53:34;;;;;;;5.55;3.00;;;;;;;8.29;67.84;97898.59;8653768;32;20161;-72
2020/12/04 15:58:36;;;;;;;5.53;3.88;;;;;;;8.41;67.65;97910.72;8646188;32;20177;-72
2020/12/04 16:03:41;;;;;;;6.85;4.35;;;;;;;8.38;68.05;97921.63;8649773;32;20510;-73
2020/12/04 16:08:44;;;;;;;9.48;4.70;;;;;;;8.35;67.67;97926.41;8656762;32;20156;-73
2020/12/04 16:13:46;;;;;;;7.32;3.97;;;;;;;8.24;67.96;97938.09;8659849;32;20232;-73
2020/12/04 16:18:49;;;;;;;6.63;3.65;;;;;;;8.31;67.75;97948.97;8659610;32;20151;-73
2020/12/04 16:23:54;;;;;;;7.40;3.97;;;;;;;8.27;67.88;97955.56;8656849;32;21669;-74
2020/12/04 16:28:58;;;;;;;6.70;4.18;;;;;;;8.29;67.88;97951.78;8654189;32;20150;-74
2020/12/04 16:34:02;;;;;;;8.82;5.18;;;;;;;8.24;68.20;97962.84;8653945;32;20418;-74
2020/12/04 16:39:05;;;;;;;9.80;5.40;;;;;;;8.24;68.22;97970.00;8656809;32;20422;-74
2020/12/04 16:44:08;;;;;;;11.73;5.97;;;;;;;8.26;67.84;97973.38;8653670;32;20493;-74
2020/12/04 16:49:13;;;;;;;9.95;6.15;;;;;;;8.19;68.17;97974.91;8649457;32;20454;-74
2020/12/04 16:54:16;;;;;;;10.52;6.00;;;;;;;8.21;68.09;97986.25;8645363;32;20839;-75
2020/12/04 16:59:19;;;;;;;11.38;6.07;;;;;;;8.23;67.83;97981.63;8669603;32;20418;-74
2020/12/04 17:04:23;;;;;;;10.55;5.82;;;;;;;8.24;67.73;97991.28;8650319;32;20407;-74
2020/12/04 17:09:25;;;;;;;12.75;5.82;;;;;;;8.22;67.72;98001.22;8651210;32;20180;-75
2020/12/04 17:14:28;;;;;;;11.32;6.15;;;;;;;8.11;67.94;97996.09;8650163;32;20613;-75
2020/12/04 17:19:32;;;;;;;12.52;7.30;;;;;;;8.14;67.79;97993.13;8650105;32;21503;-73
2020/12/04 17:24:34;;;;;;;16.38;7.45;;;;;;;8.10;67.51;98003.22;8648995;32;20219;-73
2020/12/04 17:29:36;;;;;;;22.25;9.73;;;;;;;8.00;67.93;98013.03;8648737;32;20696;-74
2020/12/04 17:34:40;;;;;;;13.95;7.25;;;;;;;7.89;67.79;98022.03;8649776;32;20425;-74
2020/12/04 17:39:42;;;;;;;15.00;7.00;;;;;;;7.85;67.95;98025.13;8649844;32;20515;-74
2020/12/04 17:44:44;;;;;;;15.48;7.25;;;;;;;7.84;67.87;98010.97;8658148;32;20591;-74
2020/12/04 17:49:48;;;;;;;29.58;12.30;;;;;;;7.89;67.83;98018.53;8670421;32;20502;-74
2020/12/04 17:54:50;;;;;;;28.60;11.45;;;;;;;7.88;67.75;98020.38;8693700;32;20468;-74
2020/12/04 17:59:52;;;;;;;18.40;9.82;;;;;;;7.87;67.78;98021.34;8678429;32;20186;-74
2020/12/04 18:04:55;;;;;;;25.27;11.13;;;;;;;7.81;68.15;98011.28;8679850;32;20445;-74
2020/12/04 18:09:58;;;;;;;18.05;7.95;;;;;;;7.70;68.52;98011.44;8667824;32;20425;-73
2020/12/04 18:15:00;;;;;;;17.63;8.38;;;;;;;7.61;68.65;98001.66;8662089;32;20439;-73
2020/12/04 18:20:04;;;;;;;17.48;8.82;;;;;;;7.65;68.23;98001.25;8652456;32;20219;-73
2020/12/04 18:25:06;;;;;;;23.95;9.77;;;;;;;7.67;68.21;98019.69;8719427;32;20400;-73
2020/12/04 18:30:09;;;;;;;16.02;8.77;;;;;;;7.55;68.47;98022.50;8679507;32;20454;-74
2020/12/04 18:35:12;;;;;;;22.15;9.93;;;;;;;7.52;68.41;98021.97;8673465;32;20662;-75
2020/12/04 18:40:29;;;;;;;26.58;10.18;;;;;;;7.40;68.88;98029.22;8717300;32;20200;-75
2020/12/04 18:45:32;;;;;;;23.08;9.55;;;;;;;7.26;68.31;98013.69;8689699;32;20525;-73
2020/12/04 18:50:35;;;;;;;17.15;8.93;;;;;;;7.27;68.88;98024.19;8716351;32;20504;-73
2020/12/04 18:55:37;;;;;;;18.77;9.38;;;;;;;7.16;68.94;98027.00;8714491;32;20190;-73
2020/12/04 19:00:40;;;;;;;19.15;9.15;;;;;;;7.17;69.06;98027.81;8686655;32;20499;-73
2020/12/04 19:05:43;;;;;;;21.73;9.63;;;;;;;7.08;69.47;98029.50;8715021;32;20406;-73
2020/12/04 19:10:50;;;;;;;22.38;9.70;;;;;;;7.13;68.90;98033.41;8713962;32;20502;-74
2020/12/04 19:15:52;;;;;;;20.10;10.05;;;;;;;7.01;68.97;98039.81;8691020;32;20185;-73
2020/12/04 19:20:55;;;;;;;21.35;9.70;;;;;;;6.94;68.99;98046.66;8725707;32;20914;-73
2020/12/04 19:25:58;;;;;;;22.20;9.77;;;;;;;6.94;69.24;98069.69;8725974;32;21116;-73
2020/12/04 19:31:00;;;;;;;22.63;9.68;;;;;;;6.84;69.48;98082.94;8724679;32;20362;-75
2020/12/04 19:36:03;;;;;;;20.40;9.65;;;;;;;6.75;69.74;98081.94;8729616;32;20596;-75
2020/12/04 19:41:06;;;;;;;23.98;9.68;;;;;;;6.81;69.78;98097.31;8736127;32;20436;-75
2020/12/04 19:46:08;;;;;;;23.17;9.27;;;;;;;6.77;69.52;98105.69;8735751;32;21972;-74
2020/12/04 19:51:11;;;;;;;21.90;9.20;;;;;;;6.77;69.41;98100.38;8710609;32;20145;-74
2020/12/04 19:56:14;;;;;;;23.88;11.02;;;;;;;6.79;69.72;98103.72;8734427;32;20490;-74
2020/12/04 20:01:20;;;;;;;19.08;9.35;;;;;;;6.74;69.37;98101.47;8742996;32;20423;-73
2020/12/04 20:06:27;;;;;;;20.67;8.95;;;;;;;6.67;68.97;98093.22;8746418;32;20175;-74
2020/12/04 20:11:30;;;;;;;21.90;9.30;;;;;;;6.62;69.43;98103.38;8744071;32;20160;-74
2020/12/04 20:16:33;;;;;;;21.45;9.45;;;;;;;6.56;69.57;98092.50;8735693;32;20126;-73
2020/12/04 20:21:36;;;;;;;19.88;9.80;;;;;;;6.46;69.86;98082.66;8740314;32;20425;-74
2020/12/04 20:26:39;;;;;;;18.38;8.43;;;;;;;6.43;70.29;98087.38;8741886;32;20467;-73
2020/12/04 20:31:42;;;;;;;17.45;8.52;;;;;;;6.41;70.16;98090.16;8742434;32;20421;-74
2020/12/04 20:36:46;;;;;;;18.50;8.48;;;;;;;6.45;69.82;98096.91;8746947;32;20465;-73
2020/12/04 20:41:48;;;;;;;23.20;8.48;;;;;;;6.51;69.69;98116.75;8719819;32;20461;-75
2020/12/04 20:46:51;;;;;;;19.45;8.40;;;;;;;6.56;69.57;98121.66;8745587;32;20440;-75
2020/12/04 20:51:55;;;;;;;15.23;8.65;;;;;;;6.59;69.83;98124.06;8738675;32;20182;-75
2020/12/04 20:56:58;;;;;;;18.67;9.30;;;;;;;6.61;69.75;98120.28;8735871;32;20495;-74
2020/12/04 21:02:00;;;;;;;15.98;8.27;;;;;;;6.60;69.35;98142.47;8729769;32;20477;-73
2020/12/04 21:07:04;;;;;;;18.60;8.52;;;;;;;6.62;68.93;98142.34;8729137;32;20440;-74
2020/12/04 21:12:09;;;;;;;18.40;9.10;;;;;;;6.61;69.00;98141.53;8730938;32;20212;-73
2020/12/04 21:17:11;;;;;;;23.70;9.63;;;;;;;6.62;68.75;98155.63;8736804;32;20994;-74
2020/12/04 21:22:15;;;;;;;21.52;10.73;;;;;;;6.57;69.08;98160.47;8738521;32;20138;-73
2020/12/04 21:27:17;;;;;;;22.52;10.50;;;;;;;6.58;69.37;98143.56;8738633;32;20578;-73
2020/12/04 21:32:21;;;;;;;20.30;10.38;;;;;;;6.55;69.20;98147.31;8740869;32;20246;-74
2020/12/04 21:37:24;;;;;;;21.80;10.02;;;;;;;6.57;69.27;98148.03;8737441;32;20468;-74
2020/12/04 21:42:27;;;;;;;18.27;8.95;;;;;;;6.57;69.73;98152.50;8733838;32;20415;-74
2020/12/04 21:47:29;;;;;;;18.80;9.23;;;;;;;6.48;70.17;98138.25;8707259;32;20137;-73
2020/12/04 21:52:32;;;;;;;16.98;8.60;;;;;;;6.48;70.28;98148.00;8725003;32;20651;-74
2020/12/04 21:57:35;;;;;;;18.85;8.85;;;;;;;6.47;70.06;98152.44;8656961;32;20458;-74
2020/12/04 22:02:38;;;;;;;16.63;8.75;;;;;;;6.44;69.90;98132.38;8657577;32;20577;-74
2020/12/04 22:07:41;;;;;;;18.42;9.98;;;;;;;6.41;69.26;98134.41;8658991;32;20397;-74
2020/12/04 22:12:43;;;;;;;19.98;8.45;;;;;;;6.45;69.25;98139.34;8659598;33;20420;-74
2020/12/04 22:17:45;;;;;;;16.08;8.05;;;;;;;6.44;68.22;98123.53;8659577;33;20155;-74
2020/12/04 22:22:48;;;;;;;17.08;8.57;;;;;;;6.47;67.87;98131.22;8666923;33;20633;-74
2020/12/04 22:27:50;;;;;;;16.30;8.25;;;;;;;6.50;67.78;98120.38;8669341;33;20178;-74
2020/12/04 22:32:53;;;;;;;17.73;7.85;;;;;;;6.46;67.58;98093.25;8705127;32;20461;-74
2020/12/04 22:37:56;;;;;;;16.52;8.43;;;;;;;6.44;67.47;98055.44;8694582;32;20874;-74
2020/12/04 22:42:59;;;;;;;16.45;9.23;;;;;;;6.44;67.76;98067.84;8656840;33;21949;-74
2020/12/04 22:48:01;;;;;;;17.27;8.35;;;;;;;6.44;67.87;98124.41;8659451;33;20987;-74
2020/12/04 22:53:04;;;;;;;15.52;8.75;;;;;;;6.48;66.97;98161.28;8662719;33;20692;-74
2020/12/04 22:58:06;;;;;;;13.10;7.60;;;;;;;6.49;66.47;98158.47;8657532;33;20540;-74
2020/12/04 23:03:08;;;;;;;15.77;7.78;;;;;;;6.44;66.82;98155.38;8634839;33;20750;-74
2020/12/04 23:08:11;;;;;;;18.10;8.77;;;;;;;6.45;66.73;98162.38;8660067;33;20546;-74
2020/12/04 23:13:14;;;;;;;14.95;8.40;;;;;;;6.46;66.44;98154.25;8662938;33;21024;-74
2020/12/04 23:18:16;;;;;;;15.75;7.95;;;;;;;6.43;67.00;98154.53;8665030;33;20416;-74
2020/12/04 23:23:19;;;;;;;15.13;8.70;;;;;;;6.39;67.59;98168.19;8665228;33;20202;-74
2020/12/04 23:28:22;;;;;;;18.33;8.68;;;;;;;6.33;67.89;98143.03;8652483;33;21169;-74
2020/12/04 23:33:24;;;;;;;14.23;8.65;;;;;;;6.32;67.88;98136.03;8677318;33;20439;-74
2020/12/04 23:38:27;;;;;;;17.38;8.13;;;;;;;6.30;68.61;98135.31;8678253;33;20135;-74
2020/12/04 23:43:30;;;;;;;18.85;8.23;;;;;;;6.27;68.36;98110.91;8677785;33;20402;-74
2020/12/04 23:48:32;;;;;;;32.10;14.43;;;;;;;6.30;68.35;98082.28;8681317;33;20246;-74
2020/12/04 23:53:41;;;;;;;39.67;16.55;;;;;;;6.28;68.62;98078.09;8680460;33;22254;-74